Time;durP1;ratioP1;P1;durP2;ratioP2;P2;SDS_P1;SDS_P2;PMS_P1;PMS_P2;Temp;Humidity;BMP_temperature;BMP_pressure;BME280_temperature;BME280_humidity;BME280_pressure;Samples;Min_cycle;Max_cycle;Signal;HPM_P1;HPM_P2
2022/04/29 00:02:15;;;;;;;22.80;10.90;;;;;;;7.33;80.53;102980.34;6185504;23;19911;-79
2022/04/29 00:04:42;;;;;;;20.80;10.82;;;;;;;7.52;80.74;103021.19;6185533;23;20076;-80
2022/04/29 00:07:09;;;;;;;24.17;11.82;;;;;;;7.46;80.93;103015.25;6185702;23;20063;-78
2022/04/29 00:09:35;;;;;;;20.15;10.88;;;;;;;7.45;80.99;103020.44;6185730;23;20012;-78
2022/04/29 00:12:02;;;;;;;25.77;10.68;;;;;;;7.43;80.52;103015.31;6185488;23;20005;-79
2022/04/29 00:14:28;;;;;;;21.77;10.80;;;;;;;7.23;80.75;102983.94;6185738;23;20027;-79
2022/04/29 00:16:53;;;;;;;21.20;11.05;;;;;;;7.42;80.61;103017.91;6187352;23;20005;-78
2022/04/29 00:19:19;;;;;;;22.73;9.77;;;;;;;7.39;80.44;103005.97;6187376;23;20009;-78
2022/04/29 00:21:45;;;;;;;22.10;10.13;;;;;;;7.37;80.49;103014.56;6187386;23;20012;-78
2022/04/29 00:24:11;;;;;;;20.83;10.43;;;;;;;7.02;81.07;102963.69;6187160;23;20092;-79
2022/04/29 00:26:37;;;;;;;21.30;10.38;;;;;;;7.31;81.13;103018.06;6187339;23;20005;-79
2022/04/29 00:29:06;;;;;;;21.13;12.10;;;;;;;7.33;81.04;103010.34;6187064;23;20051;-79
2022/04/29 00:31:32;;;;;;;17.90;10.25;;;;;;;7.03;81.33;102971.34;6187197;23;20419;-78
2022/04/29 00:33:58;;;;;;;29.48;11.82;;;;;;;7.27;81.42;103012.97;6187532;23;20008;-78
2022/04/29 00:36:23;;;;;;;19.52;10.38;;;;;;;7.13;81.90;102996.06;6187575;23;20048;-78
2022/04/29 00:38:48;;;;;;;21.90;10.43;;;;;;;7.08;81.96;102991.84;6160671;23;20009;-78
2022/04/29 00:41:22;;;;;;;22.60;10.85;;;;;;;7.01;82.07;102988.53;6186870;23;20005;-79
2022/04/29 00:43:58;;;;;;;21.90;11.00;;;;;;;7.13;81.96;103008.91;6186986;23;20005;-79
2022/04/29 00:46:23;;;;;;;21.95;10.13;;;;;;;7.08;81.70;103002.13;6187134;23;20350;-79
2022/04/29 00:48:49;;;;;;;22.88;10.57;;;;;;;7.09;82.11;103002.13;6187201;23;20013;-78
2022/04/29 00:51:14;;;;;;;22.38;10.93;;;;;;;7.08;81.86;102994.41;6187045;23;20005;-79
2022/04/29 00:53:39;;;;;;;20.17;9.98;;;;;;;7.02;81.69;102992.78;6186962;23;20005;-80
2022/04/29 00:56:05;;;;;;;24.98;10.10;;;;;;;7.01;82.01;102987.69;6186722;23;20055;-80
2022/04/29 00:58:48;;;;;;;21.25;10.55;;;;;;;6.98;81.95;102998.84;6186985;23;20076;-79
2022/04/29 01:01:14;;;;;;;21.48;10.60;;;;;;;6.97;82.01;102999.69;6186934;23;20454;-80
2022/04/29 01:03:41;;;;;;;19.38;10.05;;;;;;;6.92;81.93;102995.50;6186907;23;20009;-79
2022/04/29 01:06:07;;;;;;;24.55;10.90;;;;;;;6.75;82.42;102973.44;6186876;23;20071;-78
2022/04/29 01:08:32;;;;;;;22.13;9.70;;;;;;;6.83;82.26;102987.03;6187245;23;20071;-78
2022/04/29 01:10:57;;;;;;;21.02;10.02;;;;;;;6.85;82.33;102995.56;6186782;23;20059;-79
2022/04/29 01:13:23;;;;;;;21.95;9.95;;;;;;;6.80;82.67;102984.53;6186607;23;20032;-79
2022/04/29 01:15:50;;;;;;;21.45;9.68;;;;;;;6.83;83.32;102988.75;6186782;23;20016;-79
2022/04/29 01:18:17;;;;;;;25.08;11.07;;;;;;;6.79;82.57;102994.81;6187123;23;20334;-79
2022/04/29 01:20:42;;;;;;;21.15;10.57;;;;;;;6.74;82.57;102988.88;6186867;23;19996;-79
2022/04/29 01:23:12;;;;;;;26.00;10.93;;;;;;;6.52;82.98;102965.19;6186480;23;20383;-79
2022/04/29 01:25:39;;;;;;;19.35;10.15;;;;;;;6.58;82.87;102967.66;6186882;23;20001;-78
2022/04/29 01:28:05;;;;;;;22.25;9.65;;;;;;;6.49;83.04;102958.38;6186328;23;20177;-79
2022/04/29 01:30:31;;;;;;;22.17;10.20;;;;;;;6.48;82.98;102955.81;6186600;23;20090;-77
2022/04/29 01:32:57;;;;;;;19.40;9.15;;;;;;;6.55;83.39;102967.69;6160244;23;20013;-79
2022/04/29 01:35:22;;;;;;;26.80;9.98;;;;;;;6.52;82.99;102963.47;6186743;23;20072;-79
2022/04/29 01:37:49;;;;;;;22.13;10.52;;;;;;;6.43;83.32;102958.44;6187009;23;20028;-78
2022/04/29 01:40:16;;;;;;;21.40;9.45;;;;;;;6.46;83.68;102957.53;6160134;23;20012;-79
2022/04/29 01:42:42;;;;;;;22.10;9.65;;;;;;;6.46;83.50;102966.09;6186588;23;20009;-78
2022/04/29 01:45:08;;;;;;;24.85;10.63;;;;;;;6.28;83.44;102938.06;6162304;23;20017;-79
2022/04/29 01:47:34;;;;;;;24.20;10.75;;;;;;;6.26;83.54;102937.25;6186655;23;20497;-79
2022/04/29 01:49:59;;;;;;;23.70;10.70;;;;;;;6.38;83.44;102964.47;6186702;23;20001;-80
2022/04/29 01:52:25;;;;;;;19.58;9.38;;;;;;;6.32;83.90;102955.16;6186794;23;20013;-79
2022/04/29 01:54:50;;;;;;;23.05;9.93;;;;;;;6.19;83.38;102926.19;6185085;23;20001;-79
2022/04/29 01:57:15;;;;;;;20.60;9.52;;;;;;;6.17;83.53;102922.78;6186634;23;19997;-78
2022/04/29 01:59:41;;;;;;;21.10;10.43;;;;;;;6.11;83.48;102927.16;6186568;23;20011;-78
2022/04/29 02:02:06;;;;;;;25.10;11.13;;;;;;;6.01;83.63;102908.47;6186367;23;20079;-77
2022/04/29 02:04:34;;;;;;;22.38;11.32;;;;;;;6.23;83.82;102952.69;6186629;23;20009;-79
2022/04/29 02:06:59;;;;;;;22.15;10.10;;;;;;;6.21;83.63;102955.25;6186283;23;20016;-80
2022/04/29 02:09:25;;;;;;;21.38;10.13;;;;;;;6.18;83.92;102957.84;6186219;23;20084;-78
2022/04/29 02:12:05;;;;;;;24.67;11.05;;;;;;;6.09;84.17;102947.69;6186272;23;20374;-78
2022/04/29 02:14:39;;;;;;;20.63;10.75;;;;;;;5.81;84.30;102911.19;6186133;23;20051;-79
2022/04/29 02:17:06;;;;;;;20.45;11.02;;;;;;;6.08;84.31;102945.13;6186337;23;20009;-79
2022/04/29 02:19:33;;;;;;;21.08;10.40;;;;;;;6.14;84.29;102955.34;6186111;23;20004;-79
2022/04/29 02:21:59;;;;;;;27.40;10.65;;;;;;;6.15;84.46;102951.91;6186450;23;20009;-79
2022/04/29 02:24:25;;;;;;;27.35;10.90;;;;;;;6.07;84.31;102939.16;6186225;23;20001;-79
2022/04/29 02:26:50;;;;;;;22.48;10.93;;;;;;;6.10;84.13;102941.72;6186169;23;20063;-79
2022/04/29 02:29:16;;;;;;;27.08;11.35;;;;;;;6.14;84.30;102947.66;6186009;23;20001;-79
2022/04/29 02:31:41;;;;;;;19.80;10.68;;;;;;;6.10;84.57;102946.00;6186152;23;20001;-79
2022/04/29 02:34:06;;;;;;;29.67;13.10;;;;;;;6.08;84.57;102942.56;6185913;23;20379;-79
2022/04/29 02:36:32;;;;;;;21.33;10.63;;;;;;;6.09;84.89;102945.13;6185839;23;20006;-79
2022/04/29 02:38:58;;;;;;;23.05;11.68;;;;;;;6.08;84.42;102937.44;6185972;23;20309;-77
2022/04/29 02:41:23;;;;;;;24.33;10.75;;;;;;;5.90;84.94;102915.34;6186390;23;20005;-79
2022/04/29 02:43:49;;;;;;;26.95;11.45;;;;;;;6.03;84.57;102935.78;6185911;23;20431;-79
2022/04/29 02:46:15;;;;;;;25.02;11.68;;;;;;;5.85;84.74;102912.00;6185857;23;20017;-79
2022/04/29 02:48:40;;;;;;;28.15;11.60;;;;;;;5.96;84.61;102928.16;6186181;23;20009;-79
2022/04/29 02:51:05;;;;;;;21.73;11.90;;;;;;;5.96;84.72;102931.56;6186022;23;20007;-79
2022/04/29 02:53:31;;;;;;;27.00;12.25;;;;;;;5.98;84.75;102940.09;6185873;23;20076;-77
2022/04/29 02:55:57;;;;;;;26.52;11.65;;;;;;;5.82;85.17;102919.72;6185995;23;20366;-78
2022/04/29 02:58:23;;;;;;;29.52;12.05;;;;;;;5.98;85.21;102942.66;6185669;23;20009;-78
2022/04/29 03:00:48;;;;;;;25.92;11.77;;;;;;;5.74;84.70;102899.28;6186209;23;20017;-79
2022/04/29 03:03:13;;;;;;;24.02;11.88;;;;;;;4.73;85.23;102730.31;6184804;22;20013;-76
2022/04/29 03:05:39;;;;;;;27.35;12.02;;;;;;;5.65;85.09;102884.00;6186281;23;20005;-78
2022/04/29 03:08:15;;;;;;;23.55;12.07;;;;;;;5.15;84.80;102805.88;6185972;23;20080;-78
2022/04/29 03:10:43;;;;;;;22.23;12.07;;;;;;;5.88;85.14;102925.63;6185818;23;20055;-78
2022/04/29 03:13:08;;;;;;;29.08;12.57;;;;;;;5.91;85.12;102923.09;6185800;23;20032;-78
2022/04/29 03:15:34;;;;;;;28.55;12.77;;;;;;;5.02;84.78;102769.31;6185301;23;20001;-78
2022/04/29 03:18:18;;;;;;;29.00;13.35;;;;;;;5.94;85.50;102911.94;6185382;23;20035;-79
2022/04/29 03:20:44;;;;;;;25.95;12.25;;;;;;;5.92;85.28;102893.16;6185685;23;20005;-78
2022/04/29 03:23:10;;;;;;;25.02;12.65;;;;;;;5.83;85.54;102888.94;6185662;23;20348;-77
2022/04/29 03:25:36;;;;;;;28.65;12.95;;;;;;;5.91;85.60;102912.00;6185919;23;20013;-78
2022/04/29 03:28:05;;;;;;;29.45;13.75;;;;;;;5.91;85.52;102905.16;6185513;23;20064;-78
2022/04/29 03:30:30;;;;;;;30.13;13.15;;;;;;;5.82;85.73;102878.72;6185493;23;20032;-78
2022/04/29 03:32:58;;;;;;;24.60;12.77;;;;;;;5.94;85.00;102902.53;6185760;23;20021;-78
2022/04/29 03:35:23;;;;;;;31.48;12.93;;;;;;;5.91;84.97;102909.41;6185563;23;20017;-79
2022/04/29 03:37:51;;;;;;;27.25;13.13;;;;;;;5.92;85.31;102923.94;6185856;23;20025;-78
2022/04/29 03:40:21;;;;;;;28.27;12.88;;;;;;;5.91;85.42;102930.78;6185629;23;20001;-79
2022/04/29 03:42:48;;;;;;;26.23;12.73;;;;;;;5.83;85.43;102919.72;6185398;23;20008;-77
2022/04/29 03:45:13;;;;;;;30.75;13.82;;;;;;;5.66;85.45;102893.38;6185034;23;20001;-79
2022/04/29 03:47:39;;;;;;;28.90;13.60;;;;;;;5.88;85.75;102922.22;6185528;23;20312;-78
2022/04/29 03:50:05;;;;;;;28.45;13.55;;;;;;;5.69;85.68;102891.63;6187265;23;20300;-77
2022/04/29 03:52:31;;;;;;;30.17;13.63;;;;;;;5.89;85.90;102914.50;6188872;23;20005;-78
2022/04/29 03:54:56;;;;;;;27.55;13.60;;;;;;;5.88;85.48;102917.09;6188696;23;20059;-77
2022/04/29 03:57:22;;;;;;;30.58;14.57;;;;;;;4.97;85.48;102765.91;6189090;23;20007;-78
2022/04/29 03:59:48;;;;;;;31.25;14.10;;;;;;;5.84;85.48;102903.47;6188409;23;20011;-78
2022/04/29 04:02:14;;;;;;;26.23;14.48;;;;;;;5.71;85.76;102886.50;6188566;23;20005;-78
2022/04/29 04:04:40;;;;;;;34.17;14.98;;;;;;;5.82;85.76;102907.75;6175337;23;20087;-79
2022/04/29 04:07:05;;;;;;;32.60;14.13;;;;;;;5.74;85.74;102901.84;6189057;23;20005;-79
2022/04/29 04:09:30;;;;;;;32.90;15.60;;;;;;;5.73;85.50;102900.16;6188939;23;20011;-79
2022/04/29 04:11:56;;;;;;;33.00;15.05;;;;;;;5.75;86.20;102913.81;6188676;23;20005;-79
2022/04/29 04:14:21;;;;;;;28.15;13.98;;;;;;;5.63;86.01;102890.84;6188931;23;20005;-79
2022/04/29 04:16:47;;;;;;;32.75;15.02;;;;;;;5.62;86.10;102896.84;6188778;23;20076;-79
2022/04/29 04:19:13;;;;;;;38.65;15.25;;;;;;;5.64;86.10;102900.25;6189007;23;20331;-79
2022/04/29 04:21:39;;;;;;;33.03;15.48;;;;;;;5.73;86.58;102910.41;6188921;23;19998;-79
2022/04/29 04:24:05;;;;;;;30.73;14.95;;;;;;;5.73;86.35;102902.72;6188690;23;20083;-79
2022/04/29 04:26:31;;;;;;;40.17;15.50;;;;;;;5.73;86.36;102902.72;6188667;23;20423;-79
2022/04/29 04:28:57;;;;;;;34.80;14.63;;;;;;;5.72;86.66;102901.88;6188747;23;20036;-79
2022/04/29 04:31:24;;;;;;;35.95;15.93;;;;;;;5.73;86.44;102902.72;6188312;23;20092;-79
2022/04/29 04:33:50;;;;;;;31.75;14.98;;;;;;;5.74;86.26;102904.41;6186901;23;20009;-80
2022/04/29 04:36:15;;;;;;;32.80;16.10;;;;;;;5.72;86.28;102901.88;6188927;23;20089;-80
2022/04/29 04:38:42;;;;;;;30.00;15.90;;;;;;;5.72;86.54;102909.56;6188661;23;20029;-79
2022/04/29 04:41:08;;;;;;;34.03;16.13;;;;;;;5.70;86.27;102901.03;6188445;23;20012;-80
2022/04/29 04:43:34;;;;;;;32.75;16.05;;;;;;;5.56;86.39;102876.38;6188564;23;20005;-80
2022/04/29 04:45:59;;;;;;;30.77;14.68;;;;;;;5.71;86.53;102901.91;6188796;23;20036;-80
2022/04/29 04:48:25;;;;;;;35.85;15.70;;;;;;;5.57;85.92;102880.66;6188634;23;20009;-80
2022/04/29 04:50:50;;;;;;;34.45;15.45;;;;;;;5.66;86.09;102903.63;6188632;23;20036;-80
2022/04/29 04:53:15;;;;;;;34.03;16.52;;;;;;;5.66;86.44;102908.75;6188826;23;20017;-80
2022/04/29 04:55:41;;;;;;;34.25;16.13;;;;;;;5.66;86.50;102901.91;6188463;23;20008;-79
2022/04/29 04:58:08;;;;;;;40.92;16.25;;;;;;;5.54;86.58;102878.97;6188429;23;20375;-80
2022/04/29 05:00:34;;;;;;;31.02;16.33;;;;;;;5.51;86.62;102871.31;6187866;23;20794;-80
2022/04/29 05:03:00;;;;;;;31.52;16.25;;;;;;;5.70;86.42;102900.16;6186327;23;20505;-80
2022/04/29 05:05:25;;;;;;;35.05;15.77;;;;;;;5.59;86.34;102886.59;6186806;23;20043;-80
2022/04/29 05:07:50;;;;;;;31.77;15.18;;;;;;;5.57;86.17;102878.09;6186827;23;20009;-79
2022/04/29 05:10:18;;;;;;;35.70;15.38;;;;;;;5.56;86.26;102873.84;6160609;23;20004;-80
2022/04/29 05:12:46;;;;;;;30.40;14.77;;;;;;;5.52;86.28;102867.91;6187182;23;20044;-80
2022/04/29 05:15:16;;;;;;;32.83;15.80;;;;;;;5.55;86.53;102872.13;6186802;23;20028;-80
2022/04/29 05:17:42;;;;;;;35.58;15.05;;;;;;;5.73;85.79;102892.47;6186421;23;20005;-79
2022/04/29 05:20:12;;;;;;;32.95;15.48;;;;;;;5.63;85.77;102876.31;6186412;23;20072;-80
2022/04/29 05:22:39;;;;;;;32.78;15.57;;;;;;;5.68;85.71;102883.97;6186677;23;20005;-80
2022/04/29 05:25:05;;;;;;;32.13;15.52;;;;;;;5.86;85.79;102908.56;6159963;23;20064;-79
2022/04/29 05:27:32;;;;;;;32.38;15.15;;;;;;;5.68;85.89;102874.56;6186566;23;20012;-79
2022/04/29 05:29:57;;;;;;;33.63;15.43;;;;;;;5.72;85.28;102870.25;6186961;23;20005;-80
2022/04/29 05:32:24;;;;;;;36.20;16.80;;;;;;;6.02;85.07;102912.72;6186634;23;20032;-80
2022/04/29 05:34:50;;;;;;;31.95;15.10;;;;;;;5.95;84.92;102904.22;6186519;23;20001;-79
2022/04/29 05:37:15;;;;;;;33.92;15.23;;;;;;;6.04;85.16;102914.41;6186371;23;20057;-80
2022/04/29 05:42:25;;;;;;;34.63;15.95;;;;;;;5.96;84.74;102884.56;6186529;23;20151;-79
2022/04/29 05:44:51;;;;;;;38.88;16.75;;;;;;;6.12;84.89;102908.34;6160266;23;20087;-80
2022/04/29 05:47:34;;;;;;;31.45;15.30;;;;;;;4.89;84.32;102686.63;6186105;22;20019;-77
2022/04/29 05:50:00;;;;;;;36.70;16.17;;;;;;;6.21;84.35;102901.38;6186469;23;20039;-78
2022/04/29 05:52:56;;;;;;;34.72;16.80;;;;;;;6.32;83.72;102903.81;6186075;23;20427;-78
2022/04/29 05:56:02;;;;;;;32.00;15.65;;;;;;;5.30;83.83;102734.00;6160217;23;20216;-79
2022/04/29 05:58:28;;;;;;;37.33;15.40;;;;;;;6.47;83.56;102900.22;6185400;23;20442;-79
2022/04/29 06:00:58;;;;;;;31.98;15.35;;;;;;;6.01;82.78;102821.25;6186973;23;20005;-78
2022/04/29 06:03:23;;;;;;;29.83;14.35;;;;;;;6.65;83.04;102922.22;6185843;23;20449;-76
2022/04/29 06:05:49;;;;;;;29.70;15.63;;;;;;;6.75;82.65;102931.50;6186104;23;20005;-78
2022/04/29 06:08:14;;;;;;;37.55;15.20;;;;;;;6.82;81.67;102933.13;6186351;23;20001;-78
2022/04/29 06:10:39;;;;;;;34.70;14.48;;;;;;;6.75;82.29;102922.09;6186019;23;20036;-76
2022/04/29 06:13:05;;;;;;;32.60;16.05;;;;;;;6.89;81.88;102933.03;6186080;23;20372;-79
2022/04/29 06:15:31;;;;;;;35.05;15.55;;;;;;;6.92;81.59;102931.28;6186124;23;20009;-76
2022/04/29 06:17:56;;;;;;;35.78;15.18;;;;;;;7.03;81.38;102937.13;6186305;23;20012;-79
2022/04/29 06:20:22;;;;;;;34.17;14.88;;;;;;;7.10;81.32;102931.03;6186041;23;20008;-78
2022/04/29 06:22:47;;;;;;;35.38;15.70;;;;;;;7.21;80.41;102912.88;6186010;23;20088;-80
2022/04/29 06:25:13;;;;;;;37.30;15.38;;;;;;;7.22;80.06;102912.00;6186206;23;20088;-80
2022/04/29 06:27:39;;;;;;;35.28;15.23;;;;;;;7.40;79.82;102934.84;6186429;23;20112;-80
2022/04/29 06:30:05;;;;;;;36.10;15.25;;;;;;;7.49;79.86;102927.00;6186397;23;20077;-77
2022/04/29 06:32:30;;;;;;;31.92;15.20;;;;;;;7.61;80.23;102937.06;6159281;23;20435;-80
2022/04/29 06:34:56;;;;;;;36.53;15.50;;;;;;;7.70;79.12;102936.06;6185768;23;20008;-80
2022/04/29 06:37:21;;;;;;;33.90;16.38;;;;;;;7.84;78.15;102939.22;6185910;23;20001;-77
2022/04/29 06:39:47;;;;;;;34.13;14.77;;;;;;;7.84;78.20;102940.94;6159425;23;20009;-79
2022/04/29 06:42:12;;;;;;;39.10;16.50;;;;;;;7.65;78.15;102904.41;6185653;23;20095;-79
2022/04/29 06:44:37;;;;;;;33.80;15.57;;;;;;;7.97;78.27;102929.59;6186284;23;20005;-80
2022/04/29 06:47:03;;;;;;;32.53;15.88;;;;;;;7.97;77.41;102911.56;6185585;23;20021;-80
2022/04/29 06:49:29;;;;;;;34.25;16.10;;;;;;;8.20;77.23;102935.13;6185435;23;20029;-80
2022/04/29 06:51:55;;;;;;;30.63;15.30;;;;;;;8.20;77.02;102927.41;6185809;23;20008;-80
2022/04/29 06:54:20;;;;;;;30.67;15.30;;;;;;;8.22;76.12;102920.50;6185789;23;20009;-80
2022/04/29 06:56:45;;;;;;;32.88;15.05;;;;;;;8.53;75.99;102943.09;6186051;23;20407;-79
2022/04/29 06:59:11;;;;;;;33.17;15.50;;;;;;;8.63;75.42;102942.00;6186091;23;20011;-79
2022/04/29 07:01:36;;;;;;;34.08;15.90;;;;;;;8.78;74.42;102951.16;6185928;23;20028;-79
2022/04/29 07:04:02;;;;;;;33.70;15.57;;;;;;;8.98;73.91;102956.72;6185578;23;20005;-79
2022/04/29 07:06:27;;;;;;;32.72;15.27;;;;;;;9.05;73.71;102940.25;6186086;23;20009;-81
2022/04/29 07:08:53;;;;;;;35.75;15.85;;;;;;;9.33;72.29;102948.16;6185641;23;20379;-80
2022/04/29 07:11:21;;;;;;;29.00;14.20;;;;;;;9.42;71.49;102953.09;6185881;23;20100;-80
2022/04/29 07:13:46;;;;;;;31.15;14.50;;;;;;;9.51;70.78;102949.44;6185923;23;20063;-79
2022/04/29 07:16:12;;;;;;;36.50;14.60;;;;;;;9.51;70.31;102897.88;6185987;23;20407;-80
2022/04/29 07:18:38;;;;;;;30.15;14.98;;;;;;;9.84;69.48;102944.34;6185408;23;20435;-79
2022/04/29 07:21:03;;;;;;;34.03;14.68;;;;;;;9.71;70.17;102942.06;6185607;23;20012;-80
2022/04/29 07:23:29;;;;;;;33.83;15.55;;;;;;;8.30;70.45;102723.00;6187471;22;20023;-79
2022/04/29 07:26:00;;;;;;;30.83;14.35;;;;;;;8.97;70.09;102838.22;6185714;23;20470;-80
2022/04/29 07:28:25;;;;;;;;;;;;;;;9.69;70.75;102943.84;6186464;23;20001;-80
2022/04/29 07:30:53;;;;;;;31.17;14.48;;;;;;;9.78;70.78;102946.19;6185595;23;19979;-80
2022/04/29 07:33:18;;;;;;;34.40;14.95;;;;;;;10.04;69.80;102945.50;6186011;23;20347;-81
2022/04/29 07:43:55;;;;;;;31.63;14.27;;;;;;;10.25;68.34;102926.03;6185251;23;20020;-81
2022/04/29 07:46:21;;;;;;;34.80;15.85;;;;;;;10.42;68.06;102935.88;6185697;23;20005;-80
2022/04/29 07:48:48;;;;;;;30.95;14.63;;;;;;;10.52;68.39;102937.31;6185472;23;20055;-79
2022/04/29 07:51:13;;;;;;;32.72;14.88;;;;;;;10.69;68.19;102938.53;6158961;23;20005;-78
2022/04/29 07:53:38;;;;;;;28.85;14.85;;;;;;;10.77;68.19;102895.22;6185421;23;20016;-80
2022/04/29 07:56:05;;;;;;;30.25;13.77;;;;;;;11.15;66.06;102936.25;6185961;23;20036;-79
2022/04/29 07:58:31;;;;;;;32.05;15.35;;;;;;;11.15;66.47;102930.22;6185377;23;20005;-79
2022/04/29 08:00:57;;;;;;;30.25;14.25;;;;;;;11.15;65.67;102927.66;6186030;23;20036;-80
2022/04/29 08:03:23;;;;;;;27.95;14.30;;;;;;;11.02;65.86;102914.25;6185386;23;20047;-80
2022/04/29 08:05:49;;;;;;;30.17;14.27;;;;;;;10.98;66.29;102898.88;6184864;23;20005;-81
2022/04/29 08:08:15;;;;;;;33.28;14.98;;;;;;;11.07;65.85;102906.34;6185368;23;20012;-79
2022/04/29 08:10:40;;;;;;;31.88;14.98;;;;;;;11.08;65.83;102920.97;6185254;23;20006;-80
2022/04/29 08:13:06;;;;;;;31.33;14.80;;;;;;;11.16;65.36;102913.81;6158793;23;20005;-81
2022/04/29 08:15:32;;;;;;;31.63;14.75;;;;;;;11.34;65.25;102946.00;6185559;23;20001;-80
2022/04/29 08:18:01;;;;;;;32.22;14.98;;;;;;;11.30;64.63;102954.75;6185716;23;20013;-81
2022/04/29 08:20:26;;;;;;;28.75;14.77;;;;;;;11.20;65.20;102956.78;6185020;23;20423;-79
2022/04/29 08:22:52;;;;;;;35.83;15.35;;;;;;;11.24;64.88;102955.78;6185304;23;20012;-80
2022/04/29 08:25:19;;;;;;;27.23;14.60;;;;;;;11.25;65.34;102947.16;6185667;23;20005;-80
2022/04/29 08:27:46;;;;;;;31.15;15.38;;;;;;;11.20;64.79;102921.41;6185023;23;20024;-81
2022/04/29 08:30:12;;;;;;;34.45;15.25;;;;;;;11.38;65.10;102945.00;6185464;23;20431;-80
2022/04/29 08:32:42;;;;;;;29.33;14.68;;;;;;;11.21;65.84;102935.22;6185527;23;20088;-78
2022/04/29 08:35:12;;;;;;;31.10;14.45;;;;;;;11.33;65.83;102946.91;6185309;23;20477;-80
2022/04/29 08:37:38;;;;;;;31.25;15.00;;;;;;;11.40;65.73;102946.63;6160570;23;20339;-80
2022/04/29 08:40:08;;;;;;;29.92;15.40;;;;;;;11.47;65.38;102950.72;6187045;23;20009;-80
2022/04/29 08:42:37;;;;;;;30.52;15.95;;;;;;;11.48;65.57;102965.34;6187404;23;20106;-79
2022/04/29 08:45:06;;;;;;;30.92;16.13;;;;;;;11.37;64.43;102925.19;6187231;23;20017;-80
2022/04/29 08:47:34;;;;;;;31.13;15.27;;;;;;;11.42;64.81;102954.38;6187212;23;20028;-79
2022/04/29 08:50:01;;;;;;;33.63;15.57;;;;;;;11.01;65.28;102907.41;6187419;23;20059;-80
2022/04/29 08:52:27;;;;;;;39.67;15.88;;;;;;;11.30;64.50;102954.75;6187113;23;20008;-80
2022/04/29 09:00:23;;;;;;;28.02;14.52;;;;;;;11.56;64.31;102915.94;6187070;23;20190;-80
2022/04/29 09:02:49;;;;;;;35.63;15.15;;;;;;;11.76;64.15;102925.59;6160379;23;20420;-80
2022/04/29 09:05:15;;;;;;;33.60;16.98;;;;;;;11.95;64.57;102944.81;6186909;23;20028;-77
2022/04/29 09:08:13;;;;;;;34.55;15.20;;;;;;;12.23;64.11;102938.66;6186307;23;20029;-80
2022/04/29 09:10:47;;;;;;;30.42;15.57;;;;;;;12.31;63.35;102941.81;6014696;23;20011;-81
2022/04/29 09:13:14;;;;;;;29.52;15.60;;;;;;;12.19;62.31;102944.84;6038417;23;20031;-81
2022/04/29 09:16:05;;;;;;;29.73;16.55;;;;;;;12.27;63.82;102941.06;6038252;23;20405;-80
2022/04/29 09:18:32;;;;;;;;;;;;;;;12.52;64.47;102946.22;6039069;23;20018;-80
2022/04/29 09:20:58;;;;;;;31.65;16.08;;;;;;;12.55;61.95;102925.34;6038227;23;19981;-80
2022/04/29 09:23:28;;;;;;;37.05;16.10;;;;;;;12.49;62.54;102928.19;6044626;23;20026;-81
2022/04/29 09:25:55;;;;;;;29.92;15.50;;;;;;;12.41;61.75;102943.16;6066838;23;20007;-81
2022/04/29 09:28:22;;;;;;;29.08;15.48;;;;;;;12.10;62.00;102880.44;6066794;23;20090;-81
2022/04/29 09:30:47;;;;;;;28.67;15.85;;;;;;;12.28;62.17;102918.59;6066926;23;20010;-80
2022/04/29 09:33:24;;;;;;;31.63;16.38;;;;;;;12.29;62.23;102938.41;6067021;23;20006;-79
2022/04/29 09:35:51;;;;;;;34.50;15.63;;;;;;;12.03;62.57;102895.34;6066765;23;20150;-80
2022/04/29 09:41:02;;;;;;;36.33;16.35;;;;;;;12.46;61.43;102904.97;6066949;23;20026;-83
2022/04/29 09:43:38;;;;;;;30.80;15.50;;;;;;;12.88;60.93;102954.34;6066680;23;20019;-79
2022/04/29 09:46:23;;;;;;;30.65;15.35;;;;;;;13.08;61.14;102956.16;6081921;23;20560;-80
2022/04/29 09:48:59;;;;;;;30.25;14.93;;;;;;;12.79;60.38;102920.16;6186231;23;20037;-80
2022/04/29 09:51:42;;;;;;;30.17;14.88;;;;;;;13.06;61.20;102951.91;6186023;23;20047;-80
2022/04/29 09:54:09;;;;;;;31.20;15.00;;;;;;;12.79;60.77;102926.19;6186384;23;20005;-80
2022/04/29 09:56:35;;;;;;;31.95;15.60;;;;;;;12.92;60.40;102949.88;6186877;23;20001;-80
2022/04/29 09:59:00;;;;;;;27.38;14.90;;;;;;;12.78;61.38;102914.13;6186579;23;20323;-79
2022/04/29 10:01:28;;;;;;;30.73;14.65;;;;;;;13.03;60.51;102942.50;6186562;23;20001;-80
2022/04/29 10:03:54;;;;;;;34.28;15.68;;;;;;;12.98;61.47;102918.53;6185994;23;20085;-79
2022/04/29 10:06:22;;;;;;;29.40;15.13;;;;;;;12.99;60.62;102938.38;6186206;23;20032;-80
2022/04/29 10:08:50;;;;;;;27.20;13.43;;;;;;;12.66;61.85;102914.56;6186464;23;20005;-80
2022/04/29 10:11:21;;;;;;;29.48;14.18;;;;;;;12.88;62.15;102930.13;6186732;23;20047;-80
2022/04/29 10:13:48;;;;;;;38.08;15.52;;;;;;;12.67;61.52;102898.09;6186495;23;20079;-80
2022/04/29 10:16:16;;;;;;;34.17;14.90;;;;;;;12.74;60.84;102901.31;6186702;23;20012;-80
2022/04/29 10:21:37;;;;;;;27.20;14.70;;;;;;;12.68;61.42;102896.34;6186082;23;20096;-78
2022/04/29 10:24:02;;;;;;;31.65;15.05;;;;;;;12.76;61.61;102920.25;6185606;23;20013;-80
2022/04/29 10:26:30;;;;;;;29.85;13.73;;;;;;;12.61;61.38;102881.06;6159160;23;20009;-81
2022/04/29 10:28:56;;;;;;;31.35;14.30;;;;;;;12.81;61.57;102928.69;6186241;23;20533;-80
2022/04/29 10:31:22;;;;;;;28.38;13.75;;;;;;;12.68;61.30;102919.69;6186131;23;20005;-78
2022/04/29 10:33:48;;;;;;;33.05;14.13;;;;;;;12.52;60.99;102884.00;6185773;23;20005;-79
2022/04/29 10:38:46;;;;;;;32.63;15.15;;;;;;;12.24;61.50;102842.75;6185615;22;20108;-79
2022/04/29 10:41:19;;;;;;;28.85;15.10;;;;;;;12.58;61.73;102896.72;6185866;23;20005;-80
2022/04/29 10:43:50;;;;;;;28.55;14.13;;;;;;;12.80;61.05;102917.50;6185479;23;20023;-79
2022/04/29 10:46:31;;;;;;;30.65;14.45;;;;;;;13.07;61.97;102919.88;6186163;23;20390;-79
2022/04/29 10:49:17;;;;;;;25.38;13.05;;;;;;;13.14;60.96;102900.56;6185863;23;20001;-80
2022/04/29 10:51:56;;;;;;;32.00;14.57;;;;;;;13.19;60.92;102906.47;6185202;23;20119;-79
2022/04/29 10:54:33;;;;;;;33.03;14.02;;;;;;;13.29;60.83;102912.13;6185422;23;20089;-80
2022/04/29 10:57:07;;;;;;;30.65;13.93;;;;;;;13.25;59.78;102889.78;6185760;23;20063;-80
2022/04/29 10:59:57;;;;;;;27.15;13.13;;;;;;;13.32;59.97;102888.63;6185200;23;20047;-77
2022/04/29 11:02:31;;;;;;;27.38;13.50;;;;;;;13.47;59.62;102899.22;6185582;23;20031;-78
2022/04/29 11:04:58;;;;;;;25.25;13.48;;;;;;;13.64;58.35;102902.84;6185083;23;20009;-76
2022/04/29 11:07:39;;;;;;;25.92;12.80;;;;;;;13.47;58.71;102870.69;6185967;23;20028;-79
2022/04/29 11:10:06;;;;;;;28.95;13.65;;;;;;;13.69;58.21;102900.91;6158504;23;20009;-79
2022/04/29 11:12:40;;;;;;;30.77;13.38;;;;;;;13.79;57.27;102902.19;6186091;23;20011;-82
2022/04/29 11:15:11;;;;;;;26.10;12.35;;;;;;;13.88;57.93;102904.41;6185366;23;20415;-75
2022/04/29 11:17:38;;;;;;;24.55;12.35;;;;;;;14.04;56.79;102901.94;6185946;23;20015;-79
2022/04/29 11:20:23;;;;;;;24.70;13.65;;;;;;;14.05;57.82;102891.47;6185989;23;20056;-80
2022/04/29 11:25:48;;;;;;;25.33;11.40;;;;;;;13.98;56.03;102871.91;6185793;23;20453;-80
2022/04/29 11:28:15;;;;;;;22.42;11.40;;;;;;;13.98;56.68;102858.91;6185450;23;20005;-80
2022/04/29 11:30:40;;;;;;;24.25;12.48;;;;;;;14.19;55.65;102879.66;6159234;23;20009;-78
2022/04/29 11:33:05;;;;;;;24.58;11.65;;;;;;;14.38;54.56;102885.69;6185517;23;20005;-80
2022/04/29 11:35:31;;;;;;;26.85;12.50;;;;;;;14.32;54.37;102878.16;6185524;23;20128;-80
2022/04/29 11:37:58;;;;;;;25.05;11.48;;;;;;;14.48;54.00;102884.38;6184352;23;20064;-77
2022/04/29 11:40:26;;;;;;;24.30;11.82;;;;;;;14.59;54.07;102894.28;6185463;23;20001;-79
2022/04/29 11:42:51;;;;;;;20.42;11.00;;;;;;;14.69;52.11;102892.91;6185226;23;20067;-78
2022/04/29 11:45:20;;;;;;;26.58;11.00;;;;;;;14.55;51.93;102872.78;6185397;23;20005;-76